sensor_id;sensor_type;location;lat;lon;timestamp;temperature;humidity
7502;DHT22;3792;47.740;7.606;2024-02-23T00:02:11;7.20;99.90
7502;DHT22;3792;47.740;7.606;2024-02-23T00:04:38;7.20;99.90
7502;DHT22;3792;47.740;7.606;2024-02-23T00:07:05;7.20;99.90
7502;DHT22;3792;47.740;7.606;2024-02-23T00:09:32;7.10;99.90
7502;DHT22;3792;47.740;7.606;2024-02-23T00:11:59;7.00;99.90
7502;DHT22;3792;47.740;7.606;2024-02-23T00:14:26;6.90;99.90
7502;DHT22;3792;47.740;7.606;2024-02-23T00:16:55;6.80;99.90
7502;DHT22;3792;47.740;7.606;2024-02-23T00:19:23;6.80;99.90
7502;DHT22;3792;47.740;7.606;2024-02-23T00:21:50;6.70;99.90
7502;DHT22;3792;47.740;7.606;2024-02-23T00:24:18;6.80;99.90
7502;DHT22;3792;47.740;7.606;2024-02-23T00:26:47;6.80;99.90
7502;DHT22;3792;47.740;7.606;2024-02-23T00:29:14;6.80;99.90
7502;DHT22;3792;47.740;7.606;2024-02-23T00:31:42;6.70;99.90
7502;DHT22;3792;47.740;7.606;2024-02-23T00:34:12;6.60;99.90
7502;DHT22;3792;47.740;7.606;2024-02-23T00:36:40;6.60;99.90
7502;DHT22;3792;47.740;7.606;2024-02-23T00:39:07;6.40;99.90
7502;DHT22;3792;47.740;7.606;2024-02-23T00:41:35;6.40;99.90
7502;DHT22;3792;47.740;7.606;2024-02-23T00:44:02;6.30;99.90
7502;DHT22;3792;47.740;7.606;2024-02-23T00:46:29;6.30;99.90
7502;DHT22;3792;47.740;7.606;2024-02-23T00:48:57;6.30;99.90
7502;DHT22;3792;47.740;7.606;2024-02-23T00:51:25;6.30;99.90
7502;DHT22;3792;47.740;7.606;2024-02-23T00:53:52;6.20;99.90
7502;DHT22;3792;47.740;7.606;2024-02-23T00:56:19;6.20;99.90
7502;DHT22;3792;47.740;7.606;2024-02-23T00:58:46;6.10;99.90
7502;DHT22;3792;47.740;7.606;2024-02-23T01:01:13;6.10;99.90
7502;DHT22;3792;47.740;7.606;2024-02-23T01:03:40;6.10;99.90
7502;DHT22;3792;47.740;7.606;2024-02-23T01:06:07;6.10;99.90
7502;DHT22;3792;47.740;7.606;2024-02-23T01:08:36;6.10;99.90
7502;DHT22;3792;47.740;7.606;2024-02-23T01:11:03;6.20;99.90
7502;DHT22;3792;47.740;7.606;2024-02-23T01:13:30;6.20;99.90
7502;DHT22;3792;47.740;7.606;2024-02-23T01:15:57;6.30;99.90
7502;DHT22;3792;47.740;7.606;2024-02-23T01:18:24;6.30;99.90
7502;DHT22;3792;47.740;7.606;2024-02-23T01:20:51;6.40;99.90
7502;DHT22;3792;47.740;7.606;2024-02-23T01:23:18;6.40;99.90
7502;DHT22;3792;47.740;7.606;2024-02-23T01:25:47;6.50;99.90
7502;DHT22;3792;47.740;7.606;2024-02-23T01:28:14;6.50;99.90
7502;DHT22;3792;47.740;7.606;2024-02-23T01:30:41;6.50;99.90
7502;DHT22;3792;47.740;7.606;2024-02-23T01:33:08;6.50;99.90
7502;DHT22;3792;47.740;7.606;2024-02-23T01:35:35;6.60;99.90
7502;DHT22;3792;47.740;7.606;2024-02-23T01:38:02;6.50;99.90
7502;DHT22;3792;47.740;7.606;2024-02-23T01:40:29;6.50;99.90
7502;DHT22;3792;47.740;7.606;2024-02-23T01:43:04;6.50;99.90
7502;DHT22;3792;47.740;7.606;2024-02-23T01:45:32;6.50;99.90
7502;DHT22;3792;47.740;7.606;2024-02-23T01:47:59;6.30;99.90
7502;DHT22;3792;47.740;7.606;2024-02-23T01:50:27;6.30;99.90
7502;DHT22;3792;47.740;7.606;2024-02-23T01:52:56;6.20;99.90
7502;DHT22;3792;47.740;7.606;2024-02-23T01:55:23;6.00;99.90
7502;DHT22;3792;47.740;7.606;2024-02-23T01:57:50;6.00;99.90
7502;DHT22;3792;47.740;7.606;2024-02-23T02:00:19;6.00;99.90
7502;DHT22;3792;47.740;7.606;2024-02-23T02:02:48;6.10;99.90
7502;DHT22;3792;47.740;7.606;2024-02-23T02:05:15;6.10;99.90
7502;DHT22;3792;47.740;7.606;2024-02-23T02:07:42;6.10;99.90
7502;DHT22;3792;47.740;7.606;2024-02-23T02:10:10;6.10;99.90
7502;DHT22;3792;47.740;7.606;2024-02-23T02:12:37;6.10;99.90
7502;DHT22;3792;47.740;7.606;2024-02-23T02:15:05;6.10;99.90
7502;DHT22;3792;47.740;7.606;2024-02-23T02:17:34;6.20;99.90
7502;DHT22;3792;47.740;7.606;2024-02-23T02:20:02;6.10;99.90
7502;DHT22;3792;47.740;7.606;2024-02-23T02:22:32;6.10;99.90
7502;DHT22;3792;47.740;7.606;2024-02-23T02:25:00;6.00;99.90
7502;DHT22;3792;47.740;7.606;2024-02-23T02:27:27;6.00;99.90
7502;DHT22;3792;47.740;7.606;2024-02-23T02:29:54;6.10;99.90
7502;DHT22;3792;47.740;7.606;2024-02-23T02:32:21;6.10;99.90
7502;DHT22;3792;47.740;7.606;2024-02-23T02:34:49;6.10;99.90
7502;DHT22;3792;47.740;7.606;2024-02-23T02:37:16;6.10;99.90
7502;DHT22;3792;47.740;7.606;2024-02-23T02:39:43;6.00;99.90
7502;DHT22;3792;47.740;7.606;2024-02-23T02:42:10;6.00;99.90
7502;DHT22;3792;47.740;7.606;2024-02-23T02:44:37;6.10;99.90
7502;DHT22;3792;47.740;7.606;2024-02-23T02:47:05;6.00;99.90
7502;DHT22;3792;47.740;7.606;2024-02-23T02:49:32;6.00;99.90
7502;DHT22;3792;47.740;7.606;2024-02-23T02:52:00;6.10;99.90
7502;DHT22;3792;47.740;7.606;2024-02-23T02:54:27;6.10;99.90
7502;DHT22;3792;47.740;7.606;2024-02-23T02:56:54;6.20;99.90
7502;DHT22;3792;47.740;7.606;2024-02-23T02:59:22;6.20;99.90
7502;DHT22;3792;47.740;7.606;2024-02-23T03:01:50;6.30;99.90
7502;DHT22;3792;47.740;7.606;2024-02-23T03:04:17;6.30;99.90
7502;DHT22;3792;47.740;7.606;2024-02-23T03:06:44;6.40;99.90
7502;DHT22;3792;47.740;7.606;2024-02-23T03:09:12;6.40;99.90
7502;DHT22;3792;47.740;7.606;2024-02-23T03:11:39;6.40;99.90
7502;DHT22;3792;47.740;7.606;2024-02-23T03:14:06;6.40;99.90
7502;DHT22;3792;47.740;7.606;2024-02-23T03:16:33;6.40;99.90
7502;DHT22;3792;47.740;7.606;2024-02-23T03:19:02;6.30;99.90
7502;DHT22;3792;47.740;7.606;2024-02-23T03:21:29;6.30;99.90
7502;DHT22;3792;47.740;7.606;2024-02-23T03:23:56;6.40;99.90
7502;DHT22;3792;47.740;7.606;2024-02-23T03:26:24;6.40;99.90
7502;DHT22;3792;47.740;7.606;2024-02-23T03:28:51;6.30;99.90
7502;DHT22;3792;47.740;7.606;2024-02-23T03:31:18;6.30;99.90
7502;DHT22;3792;47.740;7.606;2024-02-23T03:33:45;6.30;99.90
7502;DHT22;3792;47.740;7.606;2024-02-23T03:36:12;6.30;99.90
7502;DHT22;3792;47.740;7.606;2024-02-23T03:38:39;6.30;99.90
7502;DHT22;3792;47.740;7.606;2024-02-23T03:41:06;6.30;99.90
7502;DHT22;3792;47.740;7.606;2024-02-23T03:43:34;6.30;99.90
7502;DHT22;3792;47.740;7.606;2024-02-23T03:46:00;6.30;99.90
7502;DHT22;3792;47.740;7.606;2024-02-23T03:48:27;6.30;99.90
7502;DHT22;3792;47.740;7.606;2024-02-23T03:50:54;6.30;99.90
7502;DHT22;3792;47.740;7.606;2024-02-23T03:53:21;6.20;99.90
7502;DHT22;3792;47.740;7.606;2024-02-23T03:55:48;6.20;99.90
7502;DHT22;3792;47.740;7.606;2024-02-23T03:58:15;6.10;99.90
7502;DHT22;3792;47.740;7.606;2024-02-23T04:00:44;6.10;99.90
7502;DHT22;3792;47.740;7.606;2024-02-23T04:03:11;6.10;99.90
7502;DHT22;3792;47.740;7.606;2024-02-23T04:05:38;6.10;99.90
7502;DHT22;3792;47.740;7.606;2024-02-23T04:08:06;6.10;99.90
7502;DHT22;3792;47.740;7.606;2024-02-23T04:10:33;6.00;99.90
7502;DHT22;3792;47.740;7.606;2024-02-23T04:13:00;6.00;99.90
7502;DHT22;3792;47.740;7.606;2024-02-23T04:15:27;6.00;99.90
7502;DHT22;3792;47.740;7.606;2024-02-23T04:17:55;6.10;99.90
7502;DHT22;3792;47.740;7.606;2024-02-23T04:20:23;6.00;99.90
7502;DHT22;3792;47.740;7.606;2024-02-23T04:22:50;6.00;99.90
7502;DHT22;3792;47.740;7.606;2024-02-23T04:25:17;5.90;99.90
7502;DHT22;3792;47.740;7.606;2024-02-23T04:27:44;5.90;99.90
7502;DHT22;3792;47.740;7.606;2024-02-23T04:30:11;6.00;99.90
7502;DHT22;3792;47.740;7.606;2024-02-23T04:32:39;6.00;99.90
7502;DHT22;3792;47.740;7.606;2024-02-23T04:35:08;5.90;99.90
7502;DHT22;3792;47.740;7.606;2024-02-23T04:37:35;5.90;99.90
7502;DHT22;3792;47.740;7.606;2024-02-23T04:40:02;5.80;99.90
7502;DHT22;3792;47.740;7.606;2024-02-23T04:42:31;5.80;99.90
7502;DHT22;3792;47.740;7.606;2024-02-23T04:44:58;5.80;99.90
7502;DHT22;3792;47.740;7.606;2024-02-23T04:47:25;5.80;99.90
7502;DHT22;3792;47.740;7.606;2024-02-23T04:49:52;5.70;99.90
7502;DHT22;3792;47.740;7.606;2024-02-23T04:52:20;5.80;99.90
7502;DHT22;3792;47.740;7.606;2024-02-23T04:54:47;5.80;99.90
7502;DHT22;3792;47.740;7.606;2024-02-23T04:57:14;5.80;99.90
7502;DHT22;3792;47.740;7.606;2024-02-23T04:59:41;5.70;99.90
7502;DHT22;3792;47.740;7.606;2024-02-23T05:02:08;5.70;99.90
7502;DHT22;3792;47.740;7.606;2024-02-23T05:04:35;5.50;99.90
7502;DHT22;3792;47.740;7.606;2024-02-23T05:07:02;5.30;99.90
7502;DHT22;3792;47.740;7.606;2024-02-23T05:09:31;5.30;99.90
7502;DHT22;3792;47.740;7.606;2024-02-23T05:11:58;5.10;99.90
7502;DHT22;3792;47.740;7.606;2024-02-23T05:14:26;4.90;99.90
7502;DHT22;3792;47.740;7.606;2024-02-23T05:16:53;4.80;99.90
7502;DHT22;3792;47.740;7.606;2024-02-23T05:19:20;4.80;99.90
7502;DHT22;3792;47.740;7.606;2024-02-23T05:21:47;4.80;99.90
7502;DHT22;3792;47.740;7.606;2024-02-23T05:24:14;4.90;99.90
7502;DHT22;3792;47.740;7.606;2024-02-23T05:26:42;4.80;99.90
7502;DHT22;3792;47.740;7.606;2024-02-23T05:29:10;4.70;99.90
7502;DHT22;3792;47.740;7.606;2024-02-23T05:31:46;4.70;99.90
7502;DHT22;3792;47.740;7.606;2024-02-23T05:34:13;4.60;99.90
7502;DHT22;3792;47.740;7.606;2024-02-23T05:36:40;4.60;99.90
7502;DHT22;3792;47.740;7.606;2024-02-23T05:39:07;4.50;99.90
7502;DHT22;3792;47.740;7.606;2024-02-23T05:41:35;4.40;99.90
7502;DHT22;3792;47.740;7.606;2024-02-23T05:44:04;4.40;99.90
7502;DHT22;3792;47.740;7.606;2024-02-23T05:46:32;4.40;99.90
7502;DHT22;3792;47.740;7.606;2024-02-23T05:48:59;4.50;99.90
7502;DHT22;3792;47.740;7.606;2024-02-23T05:51:27;4.50;99.90
7502;DHT22;3792;47.740;7.606;2024-02-23T05:53:54;4.50;99.90
7502;DHT22;3792;47.740;7.606;2024-02-23T05:56:22;4.50;99.90
7502;DHT22;3792;47.740;7.606;2024-02-23T05:58:50;4.50;99.90
7502;DHT22;3792;47.740;7.606;2024-02-23T06:01:18;4.50;99.90
7502;DHT22;3792;47.740;7.606;2024-02-23T06:03:45;4.50;99.90
7502;DHT22;3792;47.740;7.606;2024-02-23T06:06:12;4.50;99.90
7502;DHT22;3792;47.740;7.606;2024-02-23T06:08:40;4.50;99.90
7502;DHT22;3792;47.740;7.606;2024-02-23T06:11:09;4.50;99.90
7502;DHT22;3792;47.740;7.606;2024-02-23T06:13:36;4.50;99.90
7502;DHT22;3792;47.740;7.606;2024-02-23T06:16:04;4.50;99.90
7502;DHT22;3792;47.740;7.606;2024-02-23T06:18:32;4.50;99.90
7502;DHT22;3792;47.740;7.606;2024-02-23T06:21:00;4.40;99.90
7502;DHT22;3792;47.740;7.606;2024-02-23T06:23:28;4.40;99.90
7502;DHT22;3792;47.740;7.606;2024-02-23T06:25:55;4.40;99.90
7502;DHT22;3792;47.740;7.606;2024-02-23T06:28:22;4.30;99.90
7502;DHT22;3792;47.740;7.606;2024-02-23T06:30:49;4.20;99.90
7502;DHT22;3792;47.740;7.606;2024-02-23T06:33:16;4.10;99.90
7502;DHT22;3792;47.740;7.606;2024-02-23T06:35:44;4.10;99.90
7502;DHT22;3792;47.740;7.606;2024-02-23T06:38:11;4.10;99.90
7502;DHT22;3792;47.740;7.606;2024-02-23T06:40:38;4.20;99.90
7502;DHT22;3792;47.740;7.606;2024-02-23T06:43:05;4.30;99.90
7502;DHT22;3792;47.740;7.606;2024-02-23T06:45:32;4.40;99.90
7502;DHT22;3792;47.740;7.606;2024-02-23T06:47:59;4.30;99.90
7502;DHT22;3792;47.740;7.606;2024-02-23T06:50:26;4.40;99.90
7502;DHT22;3792;47.740;7.606;2024-02-23T06:52:54;4.30;99.90
7502;DHT22;3792;47.740;7.606;2024-02-23T06:55:21;4.30;99.90
7502;DHT22;3792;47.740;7.606;2024-02-23T06:57:49;4.30;99.90
7502;DHT22;3792;47.740;7.606;2024-02-23T07:00:16;4.20;99.90
7502;DHT22;3792;47.740;7.606;2024-02-23T07:02:43;4.10;99.90
7502;DHT22;3792;47.740;7.606;2024-02-23T07:05:10;4.10;99.90
7502;DHT22;3792;47.740;7.606;2024-02-23T07:07:37;4.10;99.90
7502;DHT22;3792;47.740;7.606;2024-02-23T07:10:08;4.10;99.90
7502;DHT22;3792;47.740;7.606;2024-02-23T07:12:36;4.10;99.90
7502;DHT22;3792;47.740;7.606;2024-02-23T07:15:03;4.00;99.90
7502;DHT22;3792;47.740;7.606;2024-02-23T07:17:32;4.00;99.90
7502;DHT22;3792;47.740;7.606;2024-02-23T07:19:59;4.10;99.90
7502;DHT22;3792;47.740;7.606;2024-02-23T07:22:31;4.30;99.90
7502;DHT22;3792;47.740;7.606;2024-02-23T07:24:58;4.60;99.90
7502;DHT22;3792;47.740;7.606;2024-02-23T07:27:29;4.90;99.90
7502;DHT22;3792;47.740;7.606;2024-02-23T07:29:56;5.20;99.90
7502;DHT22;3792;47.740;7.606;2024-02-23T07:32:23;5.30;99.90
7502;DHT22;3792;47.740;7.606;2024-02-23T07:34:50;5.60;99.90
7502;DHT22;3792;47.740;7.606;2024-02-23T07:37:18;6.10;99.90
7502;DHT22;3792;47.740;7.606;2024-02-23T07:39:45;6.30;99.90
7502;DHT22;3792;47.740;7.606;2024-02-23T07:42:12;6.20;99.90
7502;DHT22;3792;47.740;7.606;2024-02-23T07:44:45;6.20;99.90
7502;DHT22;3792;47.740;7.606;2024-02-23T07:47:13;6.40;99.90
7502;DHT22;3792;47.740;7.606;2024-02-23T07:49:40;6.60;99.90
7502;DHT22;3792;47.740;7.606;2024-02-23T07:52:07;6.70;99.90
7502;DHT22;3792;47.740;7.606;2024-02-23T07:54:34;6.90;99.90
7502;DHT22;3792;47.740;7.606;2024-02-23T07:57:01;6.80;99.90
7502;DHT22;3792;47.740;7.606;2024-02-23T07:59:30;7.00;99.90
7502;DHT22;3792;47.740;7.606;2024-02-23T08:01:58;7.30;99.90
7502;DHT22;3792;47.740;7.606;2024-02-23T08:04:25;7.50;99.90
7502;DHT22;3792;47.740;7.606;2024-02-23T08:06:52;7.60;99.90
7502;DHT22;3792;47.740;7.606;2024-02-23T08:09:19;7.60;99.90
7502;DHT22;3792;47.740;7.606;2024-02-23T08:11:47;7.80;99.90
7502;DHT22;3792;47.740;7.606;2024-02-23T08:14:16;7.70;99.90
7502;DHT22;3792;47.740;7.606;2024-02-23T08:16:44;7.80;99.90
7502;DHT22;3792;47.740;7.606;2024-02-23T08:19:12;7.90;99.90
7502;DHT22;3792;47.740;7.606;2024-02-23T08:21:39;8.20;99.90
7502;DHT22;3792;47.740;7.606;2024-02-23T08:24:07;8.30;99.90
7502;DHT22;3792;47.740;7.606;2024-02-23T08:26:34;8.50;99.90
7502;DHT22;3792;47.740;7.606;2024-02-23T08:29:03;8.60;99.90
7502;DHT22;3792;47.740;7.606;2024-02-23T08:31:31;8.60;99.90
7502;DHT22;3792;47.740;7.606;2024-02-23T08:33:58;8.70;99.90
7502;DHT22;3792;47.740;7.606;2024-02-23T08:36:26;8.90;99.90
7502;DHT22;3792;47.740;7.606;2024-02-23T08:38:53;9.10;99.90
7502;DHT22;3792;47.740;7.606;2024-02-23T08:41:20;9.40;99.90
7502;DHT22;3792;47.740;7.606;2024-02-23T08:43:47;9.50;99.90
7502;DHT22;3792;47.740;7.606;2024-02-23T08:46:15;9.60;99.90
7502;DHT22;3792;47.740;7.606;2024-02-23T08:48:42;9.70;99.90
7502;DHT22;3792;47.740;7.606;2024-02-23T08:51:09;9.90;99.90
7502;DHT22;3792;47.740;7.606;2024-02-23T08:53:38;10.00;99.90
7502;DHT22;3792;47.740;7.606;2024-02-23T08:56:06;10.00;99.90
7502;DHT22;3792;47.740;7.606;2024-02-23T08:58:34;10.20;99.90
7502;DHT22;3792;47.740;7.606;2024-02-23T09:01:00;10.20;99.80
7502;DHT22;3792;47.740;7.606;2024-02-23T09:03:29;10.20;98.20
7502;DHT22;3792;47.740;7.606;2024-02-23T09:05:57;10.40;99.90
7502;DHT22;3792;47.740;7.606;2024-02-23T09:08:24;10.60;98.00
7502;DHT22;3792;47.740;7.606;2024-02-23T09:10:52;10.60;98.20
7502;DHT22;3792;47.740;7.606;2024-02-23T09:13:19;10.50;98.40
7502;DHT22;3792;47.740;7.606;2024-02-23T09:15:46;10.40;98.10
7502;DHT22;3792;47.740;7.606;2024-02-23T09:18:13;10.40;98.10
7502;DHT22;3792;47.740;7.606;2024-02-23T09:20:41;10.70;98.00
7502;DHT22;3792;47.740;7.606;2024-02-23T09:23:08;10.70;97.70
7502;DHT22;3792;47.740;7.606;2024-02-23T09:25:35;10.80;97.60
7502;DHT22;3792;47.740;7.606;2024-02-23T09:28:04;11.20;97.60
7502;DHT22;3792;47.740;7.606;2024-02-23T09:30:31;11.50;97.20
7502;DHT22;3792;47.740;7.606;2024-02-23T09:32:58;11.80;97.00
7502;DHT22;3792;47.740;7.606;2024-02-23T09:35:26;12.00;96.10
7502;DHT22;3792;47.740;7.606;2024-02-23T09:37:53;12.10;96.00
7502;DHT22;3792;47.740;7.606;2024-02-23T09:40:20;12.20;95.70
7502;DHT22;3792;47.740;7.606;2024-02-23T09:42:51;12.40;95.70
7502;DHT22;3792;47.740;7.606;2024-02-23T09:45:24;12.60;96.20
7502;DHT22;3792;47.740;7.606;2024-02-23T09:47:53;12.30;95.70
7502;DHT22;3792;47.740;7.606;2024-02-23T09:50:22;12.40;95.00
7502;DHT22;3792;47.740;7.606;2024-02-23T09:52:50;12.70;95.10
7502;DHT22;3792;47.740;7.606;2024-02-23T09:55:17;12.80;94.60
7502;DHT22;3792;47.740;7.606;2024-02-23T09:57:47;12.70;94.20
7502;DHT22;3792;47.740;7.606;2024-02-23T10:00:16;12.80;93.90
7502;DHT22;3792;47.740;7.606;2024-02-23T10:02:45;12.80;94.10
7502;DHT22;3792;47.740;7.606;2024-02-23T10:05:12;13.10;93.80
7502;DHT22;3792;47.740;7.606;2024-02-23T10:07:40;13.30;94.40
7502;DHT22;3792;47.740;7.606;2024-02-23T10:10:09;12.90;93.40
7502;DHT22;3792;47.740;7.606;2024-02-23T10:12:37;12.40;93.40
7502;DHT22;3792;47.740;7.606;2024-02-23T10:15:05;12.70;92.70
7502;DHT22;3792;47.740;7.606;2024-02-23T10:17:32;12.50;93.10
7502;DHT22;3792;47.740;7.606;2024-02-23T10:20:01;13.00;93.70
7502;DHT22;3792;47.740;7.606;2024-02-23T10:22:30;13.60;93.00
7502;DHT22;3792;47.740;7.606;2024-02-23T10:25:00;13.60;92.50
7502;DHT22;3792;47.740;7.606;2024-02-23T10:27:27;14.10;91.80
7502;DHT22;3792;47.740;7.606;2024-02-23T10:29:55;14.20;90.20
7502;DHT22;3792;47.740;7.606;2024-02-23T10:32:23;14.50;90.70
7502;DHT22;3792;47.740;7.606;2024-02-23T10:34:52;15.10;90.30
7502;DHT22;3792;47.740;7.606;2024-02-23T10:37:24;15.40;87.90
7502;DHT22;3792;47.740;7.606;2024-02-23T10:39:54;15.80;88.70
7502;DHT22;3792;47.740;7.606;2024-02-23T10:42:23;15.90;85.60
7502;DHT22;3792;47.740;7.606;2024-02-23T10:44:50;15.30;85.00
7502;DHT22;3792;47.740;7.606;2024-02-23T10:47:20;15.20;85.00
7502;DHT22;3792;47.740;7.606;2024-02-23T10:49:48;14.90;84.10
7502;DHT22;3792;47.740;7.606;2024-02-23T10:52:16;14.00;86.70
7502;DHT22;3792;47.740;7.606;2024-02-23T10:54:46;13.80;86.00
7502;DHT22;3792;47.740;7.606;2024-02-23T10:57:14;13.00;89.40
7502;DHT22;3792;47.740;7.606;2024-02-23T10:59:45;12.90;90.20
7502;DHT22;3792;47.740;7.606;2024-02-23T11:02:13;13.20;90.00
7502;DHT22;3792;47.740;7.606;2024-02-23T11:04:45;13.40;89.80
7502;DHT22;3792;47.740;7.606;2024-02-23T11:07:17;13.40;90.30
7502;DHT22;3792;47.740;7.606;2024-02-23T11:09:52;13.60;89.80
7502;DHT22;3792;47.740;7.606;2024-02-23T11:12:23;13.90;89.20
7502;DHT22;3792;47.740;7.606;2024-02-23T11:14:50;14.40;86.00
7502;DHT22;3792;47.740;7.606;2024-02-23T11:17:18;14.60;85.30
7502;DHT22;3792;47.740;7.606;2024-02-23T11:19:48;14.50;85.80
7502;DHT22;3792;47.740;7.606;2024-02-23T11:22:24;14.30;86.90
7502;DHT22;3792;47.740;7.606;2024-02-23T11:24:59;13.80;87.70
7502;DHT22;3792;47.740;7.606;2024-02-23T11:27:30;14.00;89.00
7502;DHT22;3792;47.740;7.606;2024-02-23T11:30:02;14.50;89.80
7502;DHT22;3792;47.740;7.606;2024-02-23T11:32:39;15.30;89.00
7502;DHT22;3792;47.740;7.606;2024-02-23T11:35:08;15.80;87.70
7502;DHT22;3792;47.740;7.606;2024-02-23T11:37:47;14.90;87.00
7502;DHT22;3792;47.740;7.606;2024-02-23T11:40:17;13.80;87.60
7502;DHT22;3792;47.740;7.606;2024-02-23T11:42:45;13.30;89.40
7502;DHT22;3792;47.740;7.606;2024-02-23T11:45:13;12.90;90.60
7502;DHT22;3792;47.740;7.606;2024-02-23T11:47:40;12.70;90.80
7502;DHT22;3792;47.740;7.606;2024-02-23T11:50:08;12.50;91.10
7502;DHT22;3792;47.740;7.606;2024-02-23T11:52:37;12.40;91.50
7502;DHT22;3792;47.740;7.606;2024-02-23T11:55:05;12.30;91.60
7502;DHT22;3792;47.740;7.606;2024-02-23T11:57:35;12.10;91.60
7502;DHT22;3792;47.740;7.606;2024-02-23T12:00:02;12.50;91.70
7502;DHT22;3792;47.740;7.606;2024-02-23T12:02:29;13.60;90.60
7502;DHT22;3792;47.740;7.606;2024-02-23T12:04:56;14.60;90.20
7502;DHT22;3792;47.740;7.606;2024-02-23T12:07:24;14.90;88.50
7502;DHT22;3792;47.740;7.606;2024-02-23T12:09:51;15.40;87.10
7502;DHT22;3792;47.740;7.606;2024-02-23T12:12:18;15.40;86.10
7502;DHT22;3792;47.740;7.606;2024-02-23T12:14:47;15.30;83.70
7502;DHT22;3792;47.740;7.606;2024-02-23T12:17:14;15.50;82.90
7502;DHT22;3792;47.740;7.606;2024-02-23T12:19:41;15.80;82.70
7502;DHT22;3792;47.740;7.606;2024-02-23T12:22:10;16.40;82.40
7502;DHT22;3792;47.740;7.606;2024-02-23T12:24:37;17.00;81.20
7502;DHT22;3792;47.740;7.606;2024-02-23T12:27:07;17.30;81.20
7502;DHT22;3792;47.740;7.606;2024-02-23T12:29:34;16.60;80.70
7502;DHT22;3792;47.740;7.606;2024-02-23T12:32:06;16.60;80.70
7502;DHT22;3792;47.740;7.606;2024-02-23T12:34:34;16.10;79.80
7502;DHT22;3792;47.740;7.606;2024-02-23T12:37:02;16.30;80.30
7502;DHT22;3792;47.740;7.606;2024-02-23T12:39:30;16.10;81.30
7502;DHT22;3792;47.740;7.606;2024-02-23T12:41:57;16.00;84.30
7502;DHT22;3792;47.740;7.606;2024-02-23T12:44:24;15.60;80.00
7502;DHT22;3792;47.740;7.606;2024-02-23T12:46:51;14.80;80.50
7502;DHT22;3792;47.740;7.606;2024-02-23T12:49:20;14.30;82.00
7502;DHT22;3792;47.740;7.606;2024-02-23T12:51:47;14.00;82.20
7502;DHT22;3792;47.740;7.606;2024-02-23T12:54:14;13.50;81.90
7502;DHT22;3792;47.740;7.606;2024-02-23T12:56:41;13.60;84.60
7502;DHT22;3792;47.740;7.606;2024-02-23T12:59:08;13.90;83.60
7502;DHT22;3792;47.740;7.606;2024-02-23T13:01:35;13.80;85.30
7502;DHT22;3792;47.740;7.606;2024-02-23T13:04:04;13.40;88.60
7502;DHT22;3792;47.740;7.606;2024-02-23T13:06:37;13.10;88.30
7502;DHT22;3792;47.740;7.606;2024-02-23T13:09:04;12.70;85.50
7502;DHT22;3792;47.740;7.606;2024-02-23T13:11:34;12.30;87.40
7502;DHT22;3792;47.740;7.606;2024-02-23T13:14:01;12.00;89.10
7502;DHT22;3792;47.740;7.606;2024-02-23T13:16:28;12.00;90.40
7502;DHT22;3792;47.740;7.606;2024-02-23T13:18:55;12.60;90.60
7502;DHT22;3792;47.740;7.606;2024-02-23T13:21:22;13.40;89.30
7502;DHT22;3792;47.740;7.606;2024-02-23T13:23:51;14.40;88.10
7502;DHT22;3792;47.740;7.606;2024-02-23T13:26:18;14.80;85.80
7502;DHT22;3792;47.740;7.606;2024-02-23T13:28:45;14.70;83.10
7502;DHT22;3792;47.740;7.606;2024-02-23T13:31:12;14.30;82.40
7502;DHT22;3792;47.740;7.606;2024-02-23T13:33:41;14.20;84.60
7502;DHT22;3792;47.740;7.606;2024-02-23T13:36:08;14.60;84.30
7502;DHT22;3792;47.740;7.606;2024-02-23T13:38:35;15.40;85.80
7502;DHT22;3792;47.740;7.606;2024-02-23T13:41:06;16.00;82.30
7502;DHT22;3792;47.740;7.606;2024-02-23T13:43:33;16.60;81.90
7502;DHT22;3792;47.740;7.606;2024-02-23T13:46:00;16.60;79.60
7502;DHT22;3792;47.740;7.606;2024-02-23T13:48:29;16.20;78.10
7502;DHT22;3792;47.740;7.606;2024-02-23T13:50:56;15.70;76.50
7502;DHT22;3792;47.740;7.606;2024-02-23T13:53:28;15.60;75.50
7502;DHT22;3792;47.740;7.606;2024-02-23T13:55:56;15.70;77.20
7502;DHT22;3792;47.740;7.606;2024-02-23T13:58:24;15.90;76.10
7502;DHT22;3792;47.740;7.606;2024-02-23T14:00:51;16.60;73.90
7502;DHT22;3792;47.740;7.606;2024-02-23T14:03:19;17.30;73.40
7502;DHT22;3792;47.740;7.606;2024-02-23T14:05:47;17.10;67.30
7502;DHT22;3792;47.740;7.606;2024-02-23T14:08:14;16.40;69.70
7502;DHT22;3792;47.740;7.606;2024-02-23T14:10:41;15.90;71.00
7502;DHT22;3792;47.740;7.606;2024-02-23T14:13:08;15.40;68.50
7502;DHT22;3792;47.740;7.606;2024-02-23T14:15:37;15.20;72.40
7502;DHT22;3792;47.740;7.606;2024-02-23T14:18:05;15.60;71.90
7502;DHT22;3792;47.740;7.606;2024-02-23T14:20:32;15.80;71.60
7502;DHT22;3792;47.740;7.606;2024-02-23T14:22:59;16.30;70.50
7502;DHT22;3792;47.740;7.606;2024-02-23T14:25:26;16.60;69.30
7502;DHT22;3792;47.740;7.606;2024-02-23T14:27:53;16.90;67.90
7502;DHT22;3792;47.740;7.606;2024-02-23T14:30:21;17.00;68.00
7502;DHT22;3792;47.740;7.606;2024-02-23T14:32:50;17.10;68.50
7502;DHT22;3792;47.740;7.606;2024-02-23T14:35:17;17.70;68.90
7502;DHT22;3792;47.740;7.606;2024-02-23T14:37:44;17.80;66.20
7502;DHT22;3792;47.740;7.606;2024-02-23T14:40:11;18.20;64.90
7502;DHT22;3792;47.740;7.606;2024-02-23T14:42:39;17.50;63.80
7502;DHT22;3792;47.740;7.606;2024-02-23T14:45:07;17.10;63.40
7502;DHT22;3792;47.740;7.606;2024-02-23T14:47:35;16.50;64.30
7502;DHT22;3792;47.740;7.606;2024-02-23T14:50:04;16.00;65.10
7502;DHT22;3792;47.740;7.606;2024-02-23T14:52:31;15.40;66.10
7502;DHT22;3792;47.740;7.606;2024-02-23T14:54:58;14.80;67.30
7502;DHT22;3792;47.740;7.606;2024-02-23T14:57:25;14.40;69.70
7502;DHT22;3792;47.740;7.606;2024-02-23T14:59:52;14.00;70.60
7502;DHT22;3792;47.740;7.606;2024-02-23T15:02:20;13.70;72.30
7502;DHT22;3792;47.740;7.606;2024-02-23T15:04:48;13.60;73.40
7502;DHT22;3792;47.740;7.606;2024-02-23T15:07:17;13.60;73.60
7502;DHT22;3792;47.740;7.606;2024-02-23T15:09:44;13.50;73.80
7502;DHT22;3792;47.740;7.606;2024-02-23T15:12:11;13.40;74.10
7502;DHT22;3792;47.740;7.606;2024-02-23T15:14:39;13.20;74.60
7502;DHT22;3792;47.740;7.606;2024-02-23T15:17:06;13.20;75.70
7502;DHT22;3792;47.740;7.606;2024-02-23T15:19:33;13.10;75.80
7502;DHT22;3792;47.740;7.606;2024-02-23T15:22:00;13.00;75.40
7502;DHT22;3792;47.740;7.606;2024-02-23T15:24:29;12.70;75.40
7502;DHT22;3792;47.740;7.606;2024-02-23T15:26:56;12.70;76.10
7502;DHT22;3792;47.740;7.606;2024-02-23T15:29:23;12.80;77.50
7502;DHT22;3792;47.740;7.606;2024-02-23T15:31:50;12.80;78.60
7502;DHT22;3792;47.740;7.606;2024-02-23T15:34:17;12.80;77.60
7502;DHT22;3792;47.740;7.606;2024-02-23T15:36:44;12.70;77.70
7502;DHT22;3792;47.740;7.606;2024-02-23T15:39:11;12.60;77.00
7502;DHT22;3792;47.740;7.606;2024-02-23T15:41:41;12.50;78.20
7502;DHT22;3792;47.740;7.606;2024-02-23T15:44:08;12.30;78.90
7502;DHT22;3792;47.740;7.606;2024-02-23T15:46:35;12.20;79.50
7502;DHT22;3792;47.740;7.606;2024-02-23T15:49:02;12.00;79.80
7502;DHT22;3792;47.740;7.606;2024-02-23T15:51:30;11.90;80.40
7502;DHT22;3792;47.740;7.606;2024-02-23T15:53:59;11.80;80.70
7502;DHT22;3792;47.740;7.606;2024-02-23T15:56:26;11.80;82.00
7502;DHT22;3792;47.740;7.606;2024-02-23T15:58:55;11.70;82.30
7502;DHT22;3792;47.740;7.606;2024-02-23T16:01:22;11.60;82.40
7502;DHT22;3792;47.740;7.606;2024-02-23T16:03:50;11.50;81.90
7502;DHT22;3792;47.740;7.606;2024-02-23T16:06:17;11.50;83.10
7502;DHT22;3792;47.740;7.606;2024-02-23T16:08:45;11.50;83.00
7502;DHT22;3792;47.740;7.606;2024-02-23T16:11:14;11.50;83.30
7502;DHT22;3792;47.740;7.606;2024-02-23T16:13:42;11.50;83.10